sensor_id;sensor_type;location;lat;lon;timestamp;P1;durP1;ratioP1;P2;durP2;ratioP2
8656;SDS011;4366;50.764;7.184;2023-03-13T00:00:00;6.13;;;2.13;;
8656;SDS011;4366;50.764;7.184;2023-03-13T00:05:02;6.93;;;2.07;;
8656;SDS011;4366;50.764;7.184;2023-03-13T00:10:04;5.80;;;2.07;;
8656;SDS011;4366;50.764;7.184;2023-03-13T00:15:07;8.07;;;2.57;;
8656;SDS011;4366;50.764;7.184;2023-03-13T00:20:09;5.20;;;1.80;;
8656;SDS011;4366;50.764;7.184;2023-03-13T00:25:11;6.90;;;2.00;;
8656;SDS011;4366;50.764;7.184;2023-03-13T00:30:13;5.93;;;2.20;;
8656;SDS011;4366;50.764;7.184;2023-03-13T00:35:15;6.30;;;2.23;;
8656;SDS011;4366;50.764;7.184;2023-03-13T00:40:17;7.30;;;2.50;;
8656;SDS011;4366;50.764;7.184;2023-03-13T00:45:20;8.70;;;2.57;;
8656;SDS011;4366;50.764;7.184;2023-03-13T00:50:22;9.13;;;2.30;;
8656;SDS011;4366;50.764;7.184;2023-03-13T00:55:24;7.83;;;2.60;;
8656;SDS011;4366;50.764;7.184;2023-03-13T01:00:25;6.67;;;2.23;;
8656;SDS011;4366;50.764;7.184;2023-03-13T01:05:27;6.90;;;2.10;;
8656;SDS011;4366;50.764;7.184;2023-03-13T01:10:29;9.27;;;2.27;;
8656;SDS011;4366;50.764;7.184;2023-03-13T01:15:33;6.13;;;2.10;;
8656;SDS011;4366;50.764;7.184;2023-03-13T01:20:35;7.17;;;2.17;;
8656;SDS011;4366;50.764;7.184;2023-03-13T01:25:38;7.30;;;2.43;;
8656;SDS011;4366;50.764;7.184;2023-03-13T01:30:41;8.03;;;2.13;;
8656;SDS011;4366;50.764;7.184;2023-03-13T01:35:43;6.10;;;2.10;;
8656;SDS011;4366;50.764;7.184;2023-03-13T01:40:47;5.80;;;2.20;;
8656;SDS011;4366;50.764;7.184;2023-03-13T01:45:50;6.67;;;2.07;;
8656;SDS011;4366;50.764;7.184;2023-03-13T01:50:58;4.47;;;1.90;;
8656;SDS011;4366;50.764;7.184;2023-03-13T01:56:04;3.33;;;1.53;;
8656;SDS011;4366;50.764;7.184;2023-03-13T02:01:08;3.43;;;1.70;;
8656;SDS011;4366;50.764;7.184;2023-03-13T02:06:10;4.93;;;1.70;;
8656;SDS011;4366;50.764;7.184;2023-03-13T02:11:15;3.17;;;1.60;;
8656;SDS011;4366;50.764;7.184;2023-03-13T02:16:22;4.13;;;1.60;;
8656;SDS011;4366;50.764;7.184;2023-03-13T02:21:36;4.27;;;1.47;;
8656;SDS011;4366;50.764;7.184;2023-03-13T02:26:42;1.83;;;1.50;;
8656;SDS011;4366;50.764;7.184;2023-03-13T02:31:45;3.93;;;1.67;;
8656;SDS011;4366;50.764;7.184;2023-03-13T02:36:50;1.10;;;1.00;;
8656;SDS011;4366;50.764;7.184;2023-03-13T02:41:53;1.47;;;1.10;;
8656;SDS011;4366;50.764;7.184;2023-03-13T02:46:56;4.07;;;1.30;;
8656;SDS011;4366;50.764;7.184;2023-03-13T02:52:12;1.33;;;1.23;;
8656;SDS011;4366;50.764;7.184;2023-03-13T02:57:16;2.63;;;1.20;;
8656;SDS011;4366;50.764;7.184;2023-03-13T03:02:19;2.17;;;1.50;;
8656;SDS011;4366;50.764;7.184;2023-03-13T03:07:22;2.20;;;1.20;;
8656;SDS011;4366;50.764;7.184;2023-03-13T03:12:25;1.00;;;1.00;;
8656;SDS011;4366;50.764;7.184;2023-03-13T03:17:27;0.90;;;0.80;;
8656;SDS011;4366;50.764;7.184;2023-03-13T03:22:29;1.90;;;0.80;;
8656;SDS011;4366;50.764;7.184;2023-03-13T03:27:32;2.83;;;1.23;;
8656;SDS011;4366;50.764;7.184;2023-03-13T03:32:34;1.07;;;0.93;;
8656;SDS011;4366;50.764;7.184;2023-03-13T03:37:36;0.83;;;0.83;;
8656;SDS011;4366;50.764;7.184;2023-03-13T03:42:38;0.70;;;0.70;;
8656;SDS011;4366;50.764;7.184;2023-03-13T03:47:40;1.83;;;0.80;;
8656;SDS011;4366;50.764;7.184;2023-03-13T03:52:42;0.80;;;0.80;;
8656;SDS011;4366;50.764;7.184;2023-03-13T03:57:44;1.43;;;1.00;;
8656;SDS011;4366;50.764;7.184;2023-03-13T04:02:53;0.53;;;0.53;;
8656;SDS011;4366;50.764;7.184;2023-03-13T04:07:56;1.07;;;0.97;;
8656;SDS011;4366;50.764;7.184;2023-03-13T04:12:58;0.63;;;0.63;;
8656;SDS011;4366;50.764;7.184;2023-03-13T04:18:01;0.77;;;0.77;;
8656;SDS011;4366;50.764;7.184;2023-03-13T04:23:03;1.50;;;0.63;;
8656;SDS011;4366;50.764;7.184;2023-03-13T04:28:04;0.80;;;0.80;;
8656;SDS011;4366;50.764;7.184;2023-03-13T04:33:12;1.50;;;0.50;;
8656;SDS011;4366;50.764;7.184;2023-03-13T04:38:25;0.50;;;0.50;;
8656;SDS011;4366;50.764;7.184;2023-03-13T04:43:53;0.83;;;0.50;;
8656;SDS011;4366;50.764;7.184;2023-03-13T04:49:13;0.60;;;0.60;;
8656;SDS011;4366;50.764;7.184;2023-03-13T04:54:16;2.27;;;0.77;;
8656;SDS011;4366;50.764;7.184;2023-03-13T04:59:33;0.60;;;0.60;;
8656;SDS011;4366;50.764;7.184;2023-03-13T05:04:58;0.60;;;0.60;;
8656;SDS011;4366;50.764;7.184;2023-03-13T05:10:29;0.50;;;0.50;;
8656;SDS011;4366;50.764;7.184;2023-03-13T05:16:00;0.40;;;0.40;;
8656;SDS011;4366;50.764;7.184;2023-03-13T05:21:08;0.43;;;0.43;;
8656;SDS011;4366;50.764;7.184;2023-03-13T05:26:27;1.20;;;0.60;;
8656;SDS011;4366;50.764;7.184;2023-03-13T05:31:44;0.57;;;0.57;;
8656;SDS011;4366;50.764;7.184;2023-03-13T05:37:17;0.43;;;0.43;;
8656;SDS011;4366;50.764;7.184;2023-03-13T05:42:31;0.40;;;0.40;;
8656;SDS011;4366;50.764;7.184;2023-03-13T05:47:52;0.50;;;0.50;;
8656;SDS011;4366;50.764;7.184;2023-03-13T05:53:29;0.50;;;0.50;;
8656;SDS011;4366;50.764;7.184;2023-03-13T05:58:30;0.40;;;0.40;;
8656;SDS011;4366;50.764;7.184;2023-03-13T06:03:51;0.80;;;0.50;;
8656;SDS011;4366;50.764;7.184;2023-03-13T06:08:53;0.50;;;0.50;;
8656;SDS011;4366;50.764;7.184;2023-03-13T06:13:57;0.40;;;0.40;;
8656;SDS011;4366;50.764;7.184;2023-03-13T06:19:08;0.50;;;0.50;;
8656;SDS011;4366;50.764;7.184;2023-03-13T06:24:10;0.50;;;0.50;;
8656;SDS011;4366;50.764;7.184;2023-03-13T06:29:12;0.50;;;0.50;;
8656;SDS011;4366;50.764;7.184;2023-03-13T06:34:13;1.20;;;0.67;;
8656;SDS011;4366;50.764;7.184;2023-03-13T06:39:15;0.50;;;0.50;;
8656;SDS011;4366;50.764;7.184;2023-03-13T06:44:16;2.67;;;2.53;;
8656;SDS011;4366;50.764;7.184;2023-03-13T06:55:00;0.90;;;0.90;;
8656;SDS011;4366;50.764;7.184;2023-03-13T07:14:00;1.00;;;1.00;;
8656;SDS011;4366;50.764;7.184;2023-03-13T07:26:18;1.53;;;1.20;;
8656;SDS011;4366;50.764;7.184;2023-03-13T07:31:28;4.97;;;1.30;;
8656;SDS011;4366;50.764;7.184;2023-03-13T07:42:49;1.87;;;1.47;;
8656;SDS011;4366;50.764;7.184;2023-03-13T07:48:33;2.47;;;1.57;;
8656;SDS011;4366;50.764;7.184;2023-03-13T07:53:38;1.50;;;1.40;;
8656;SDS011;4366;50.764;7.184;2023-03-13T07:58:40;2.43;;;1.60;;
8656;SDS011;4366;50.764;7.184;2023-03-13T08:03:43;1.60;;;1.50;;
8656;SDS011;4366;50.764;7.184;2023-03-13T08:08:45;2.27;;;1.67;;
8656;SDS011;4366;50.764;7.184;2023-03-13T08:13:47;1.40;;;1.30;;
8656;SDS011;4366;50.764;7.184;2023-03-13T08:18:53;1.70;;;1.60;;
8656;SDS011;4366;50.764;7.184;2023-03-13T08:23:56;3.03;;;1.60;;
8656;SDS011;4366;50.764;7.184;2023-03-13T08:29:00;1.53;;;1.43;;
8656;SDS011;4366;50.764;7.184;2023-03-13T08:34:05;1.93;;;1.53;;
8656;SDS011;4366;50.764;7.184;2023-03-13T08:39:09;1.93;;;1.43;;
8656;SDS011;4366;50.764;7.184;2023-03-13T08:44:18;1.50;;;1.40;;
8656;SDS011;4366;50.764;7.184;2023-03-13T08:49:25;1.70;;;1.60;;
8656;SDS011;4366;50.764;7.184;2023-03-13T08:54:27;3.40;;;1.67;;
8656;SDS011;4366;50.764;7.184;2023-03-13T08:59:28;1.70;;;1.60;;
8656;SDS011;4366;50.764;7.184;2023-03-13T09:04:30;4.47;;;1.70;;
8656;SDS011;4366;50.764;7.184;2023-03-13T09:09:32;2.33;;;1.80;;
8656;SDS011;4366;50.764;7.184;2023-03-13T09:14:33;1.83;;;1.70;;
8656;SDS011;4366;50.764;7.184;2023-03-13T09:19:37;2.27;;;1.60;;
8656;SDS011;4366;50.764;7.184;2023-03-13T09:24:48;2.47;;;1.47;;
8656;SDS011;4366;50.764;7.184;2023-03-13T09:29:49;1.33;;;1.07;;
8656;SDS011;4366;50.764;7.184;2023-03-13T09:34:51;1.50;;;1.40;;
8656;SDS011;4366;50.764;7.184;2023-03-13T09:39:52;2.77;;;1.17;;
8656;SDS011;4366;50.764;7.184;2023-03-13T09:44:58;2.43;;;1.23;;
8656;SDS011;4366;50.764;7.184;2023-03-13T09:50:26;1.47;;;1.20;;
8656;SDS011;4366;50.764;7.184;2023-03-13T09:55:35;1.40;;;1.00;;
8656;SDS011;4366;50.764;7.184;2023-03-13T10:00:37;1.50;;;1.10;;
8656;SDS011;4366;50.764;7.184;2023-03-13T10:22:15;1.27;;;1.17;;
8656;SDS011;4366;50.764;7.184;2023-03-13T10:27:19;1.33;;;1.00;;
8656;SDS011;4366;50.764;7.184;2023-03-13T10:32:21;1.10;;;1.10;;
8656;SDS011;4366;50.764;7.184;2023-03-13T10:37:27;1.00;;;1.00;;
8656;SDS011;4366;50.764;7.184;2023-03-13T10:42:31;1.57;;;1.33;;
8656;SDS011;4366;50.764;7.184;2023-03-13T10:47:36;1.07;;;1.07;;
8656;SDS011;4366;50.764;7.184;2023-03-13T10:52:44;0.93;;;0.93;;
8656;SDS011;4366;50.764;7.184;2023-03-13T11:03:01;1.20;;;1.20;;
8656;SDS011;4366;50.764;7.184;2023-03-13T11:08:09;1.73;;;1.20;;
8656;SDS011;4366;50.764;7.184;2023-03-13T11:13:55;3.10;;;1.40;;
8656;SDS011;4366;50.764;7.184;2023-03-13T11:35:00;1.00;;;0.70;;
8656;SDS011;4366;50.764;7.184;2023-03-13T11:40:16;1.40;;;0.50;;
8656;SDS011;4366;50.764;7.184;2023-03-13T12:01:12;0.73;;;0.50;;
8656;SDS011;4366;50.764;7.184;2023-03-13T12:06:22;0.40;;;0.40;;
8656;SDS011;4366;50.764;7.184;2023-03-13T12:11:35;0.87;;;0.60;;
8656;SDS011;4366;50.764;7.184;2023-03-13T12:16:48;1.00;;;0.40;;
8656;SDS011;4366;50.764;7.184;2023-03-13T12:21:53;0.57;;;0.57;;
8656;SDS011;4366;50.764;7.184;2023-03-13T12:26:58;0.63;;;0.60;;
8656;SDS011;4366;50.764;7.184;2023-03-13T12:32:08;0.50;;;0.50;;
8656;SDS011;4366;50.764;7.184;2023-03-13T13:12:32;1.30;;;0.77;;
8656;SDS011;4366;50.764;7.184;2023-03-13T13:22:48;0.90;;;0.90;;
8656;SDS011;4366;50.764;7.184;2023-03-13T13:27:52;1.00;;;0.90;;
8656;SDS011;4366;50.764;7.184;2023-03-13T13:32:55;1.40;;;0.90;;
8656;SDS011;4366;50.764;7.184;2023-03-13T13:43:20;0.90;;;0.73;;
8656;SDS011;4366;50.764;7.184;2023-03-13T13:48:24;0.50;;;0.50;;
8656;SDS011;4366;50.764;7.184;2023-03-13T13:53:29;0.60;;;0.60;;
8656;SDS011;4366;50.764;7.184;2023-03-13T13:58:42;0.60;;;0.60;;
8656;SDS011;4366;50.764;7.184;2023-03-13T14:03:45;0.67;;;0.67;;
8656;SDS011;4366;50.764;7.184;2023-03-13T14:08:47;0.70;;;0.70;;
8656;SDS011;4366;50.764;7.184;2023-03-13T14:19:38;0.73;;;0.67;;
8656;SDS011;4366;50.764;7.184;2023-03-13T14:24:47;0.60;;;0.57;;
8656;SDS011;4366;50.764;7.184;2023-03-13T14:30:04;0.40;;;0.40;;
8656;SDS011;4366;50.764;7.184;2023-03-13T14:35:12;0.40;;;0.40;;
8656;SDS011;4366;50.764;7.184;2023-03-13T14:45:30;0.47;;;0.40;;
8656;SDS011;4366;50.764;7.184;2023-03-13T14:50:33;0.43;;;0.43;;
8656;SDS011;4366;50.764;7.184;2023-03-13T14:55:35;1.13;;;0.40;;
8656;SDS011;4366;50.764;7.184;2023-03-13T15:00:41;0.40;;;0.40;;
8656;SDS011;4366;50.764;7.184;2023-03-13T15:10:50;0.50;;;0.50;;
8656;SDS011;4366;50.764;7.184;2023-03-13T15:15:52;0.40;;;0.40;;
8656;SDS011;4366;50.764;7.184;2023-03-13T15:26:10;0.50;;;0.50;;
8656;SDS011;4366;50.764;7.184;2023-03-13T15:31:12;0.50;;;0.50;;
8656;SDS011;4366;50.764;7.184;2023-03-13T15:36:14;0.83;;;0.80;;
8656;SDS011;4366;50.764;7.184;2023-03-13T15:41:17;0.63;;;0.63;;
8656;SDS011;4366;50.764;7.184;2023-03-13T15:46:19;0.60;;;0.60;;
8656;SDS011;4366;50.764;7.184;2023-03-13T15:51:24;0.53;;;0.53;;
8656;SDS011;4366;50.764;7.184;2023-03-13T15:56:28;1.30;;;0.70;;
8656;SDS011;4366;50.764;7.184;2023-03-13T16:01:32;0.83;;;0.83;;
8656;SDS011;4366;50.764;7.184;2023-03-13T16:06:34;0.80;;;0.80;;
8656;SDS011;4366;50.764;7.184;2023-03-13T16:11:36;0.80;;;0.80;;
8656;SDS011;4366;50.764;7.184;2023-03-13T16:16:37;2.20;;;0.90;;
8656;SDS011;4366;50.764;7.184;2023-03-13T16:21:40;1.73;;;1.00;;
8656;SDS011;4366;50.764;7.184;2023-03-13T16:26:48;0.83;;;0.83;;
8656;SDS011;4366;50.764;7.184;2023-03-13T16:31:50;1.13;;;0.80;;
8656;SDS011;4366;50.764;7.184;2023-03-13T16:36:52;1.17;;;0.90;;
8656;SDS011;4366;50.764;7.184;2023-03-13T16:41:53;1.10;;;1.10;;
8656;SDS011;4366;50.764;7.184;2023-03-13T16:46:55;0.70;;;0.70;;
8656;SDS011;4366;50.764;7.184;2023-03-13T16:52:08;1.63;;;1.00;;
8656;SDS011;4366;50.764;7.184;2023-03-13T16:57:15;1.30;;;0.83;;
8656;SDS011;4366;50.764;7.184;2023-03-13T17:02:19;2.10;;;1.00;;
8656;SDS011;4366;50.764;7.184;2023-03-13T17:07:22;1.27;;;0.93;;
8656;SDS011;4366;50.764;7.184;2023-03-13T17:12:24;1.47;;;0.80;;
8656;SDS011;4366;50.764;7.184;2023-03-13T17:17:26;1.20;;;0.70;;
8656;SDS011;4366;50.764;7.184;2023-03-13T17:22:28;1.83;;;0.97;;
8656;SDS011;4366;50.764;7.184;2023-03-13T17:27:30;1.03;;;0.90;;
8656;SDS011;4366;50.764;7.184;2023-03-13T17:32:31;1.57;;;1.17;;
8656;SDS011;4366;50.764;7.184;2023-03-13T17:37:33;1.00;;;1.00;;
8656;SDS011;4366;50.764;7.184;2023-03-13T17:42:35;1.70;;;1.23;;
8656;SDS011;4366;50.764;7.184;2023-03-13T17:47:37;1.10;;;1.10;;
8656;SDS011;4366;50.764;7.184;2023-03-13T17:52:40;1.17;;;0.90;;
8656;SDS011;4366;50.764;7.184;2023-03-13T17:57:42;1.17;;;1.10;;
8656;SDS011;4366;50.764;7.184;2023-03-13T18:02:44;1.10;;;1.10;;
8656;SDS011;4366;50.764;7.184;2023-03-13T18:07:47;2.97;;;1.33;;
8656;SDS011;4366;50.764;7.184;2023-03-13T18:12:49;2.33;;;1.50;;
8656;SDS011;4366;50.764;7.184;2023-03-13T18:17:51;1.53;;;1.30;;
8656;SDS011;4366;50.764;7.184;2023-03-13T18:22:53;0.87;;;0.87;;
8656;SDS011;4366;50.764;7.184;2023-03-13T18:28:00;1.50;;;1.20;;
8656;SDS011;4366;50.764;7.184;2023-03-13T18:33:01;1.60;;;1.50;;
8656;SDS011;4366;50.764;7.184;2023-03-13T18:38:03;3.10;;;1.63;;
8656;SDS011;4366;50.764;7.184;2023-03-13T18:43:05;1.30;;;1.20;;
8656;SDS011;4366;50.764;7.184;2023-03-13T18:48:08;1.43;;;1.33;;
8656;SDS011;4366;50.764;7.184;2023-03-13T18:53:10;1.20;;;1.17;;
8656;SDS011;4366;50.764;7.184;2023-03-13T18:58:12;1.20;;;1.07;;
8656;SDS011;4366;50.764;7.184;2023-03-13T19:03:14;2.67;;;0.87;;
8656;SDS011;4366;50.764;7.184;2023-03-13T19:08:20;1.67;;;0.97;;
8656;SDS011;4366;50.764;7.184;2023-03-13T19:13:22;1.07;;;0.63;;
8656;SDS011;4366;50.764;7.184;2023-03-13T19:18:23;0.90;;;0.87;;
8656;SDS011;4366;50.764;7.184;2023-03-13T19:23:25;1.20;;;1.03;;
8656;SDS011;4366;50.764;7.184;2023-03-13T19:28:27;0.87;;;0.80;;
8656;SDS011;4366;50.764;7.184;2023-03-13T19:33:28;1.67;;;1.07;;
8656;SDS011;4366;50.764;7.184;2023-03-13T19:38:30;0.60;;;0.60;;
8656;SDS011;4366;50.764;7.184;2023-03-13T19:43:32;1.07;;;1.00;;
8656;SDS011;4366;50.764;7.184;2023-03-13T19:48:33;2.50;;;1.00;;
8656;SDS011;4366;50.764;7.184;2023-03-13T19:53:35;0.87;;;0.87;;
8656;SDS011;4366;50.764;7.184;2023-03-13T19:58:37;1.13;;;1.00;;
8656;SDS011;4366;50.764;7.184;2023-03-13T20:03:39;1.13;;;0.97;;
8656;SDS011;4366;50.764;7.184;2023-03-13T20:08:40;2.10;;;1.20;;
8656;SDS011;4366;50.764;7.184;2023-03-13T20:13:42;1.20;;;1.10;;
8656;SDS011;4366;50.764;7.184;2023-03-13T20:18:44;3.13;;;1.70;;
8656;SDS011;4366;50.764;7.184;2023-03-13T20:23:49;1.83;;;1.60;;
8656;SDS011;4366;50.764;7.184;2023-03-13T20:28:51;3.30;;;1.13;;
8656;SDS011;4366;50.764;7.184;2023-03-13T20:33:54;1.23;;;1.13;;
8656;SDS011;4366;50.764;7.184;2023-03-13T20:38:57;1.23;;;1.13;;
8656;SDS011;4366;50.764;7.184;2023-03-13T20:43:58;3.03;;;1.40;;
8656;SDS011;4366;50.764;7.184;2023-03-13T20:49:00;2.00;;;1.10;;
8656;SDS011;4366;50.764;7.184;2023-03-13T20:54:02;1.93;;;1.60;;
8656;SDS011;4366;50.764;7.184;2023-03-13T20:59:03;1.00;;;1.00;;
8656;SDS011;4366;50.764;7.184;2023-03-13T21:04:05;2.30;;;1.00;;
8656;SDS011;4366;50.764;7.184;2023-03-13T21:09:07;2.37;;;1.20;;
8656;SDS011;4366;50.764;7.184;2023-03-13T21:14:08;1.10;;;1.00;;
8656;SDS011;4366;50.764;7.184;2023-03-13T21:19:10;1.07;;;1.00;;
8656;SDS011;4366;50.764;7.184;2023-03-13T21:24:12;0.97;;;0.90;;
8656;SDS011;4366;50.764;7.184;2023-03-13T21:29:13;0.90;;;0.90;;
8656;SDS011;4366;50.764;7.184;2023-03-13T21:34:15;3.13;;;1.10;;
8656;SDS011;4366;50.764;7.184;2023-03-13T21:39:17;2.40;;;1.17;;
8656;SDS011;4366;50.764;7.184;2023-03-13T21:44:19;1.90;;;0.93;;
8656;SDS011;4366;50.764;7.184;2023-03-13T21:49:21;1.63;;;0.90;;
8656;SDS011;4366;50.764;7.184;2023-03-13T21:54:23;1.27;;;1.00;;
8656;SDS011;4366;50.764;7.184;2023-03-13T21:59:25;1.60;;;1.00;;
8656;SDS011;4366;50.764;7.184;2023-03-13T22:04:28;1.73;;;0.97;;
8656;SDS011;4366;50.764;7.184;2023-03-13T22:09:29;1.47;;;1.00;;
8656;SDS011;4366;50.764;7.184;2023-03-13T22:14:31;0.70;;;0.70;;
8656;SDS011;4366;50.764;7.184;2023-03-13T22:19:33;1.23;;;1.07;;
8656;SDS011;4366;50.764;7.184;2023-03-13T22:24:35;1.87;;;1.00;;
8656;SDS011;4366;50.764;7.184;2023-03-13T22:29:36;2.47;;;1.10;;
8656;SDS011;4366;50.764;7.184;2023-03-13T22:34:38;2.70;;;1.20;;
8656;SDS011;4366;50.764;7.184;2023-03-13T22:39:45;1.57;;;1.00;;
8656;SDS011;4366;50.764;7.184;2023-03-13T22:44:46;1.23;;;0.93;;
8656;SDS011;4366;50.764;7.184;2023-03-13T22:49:48;0.83;;;0.80;;
8656;SDS011;4366;50.764;7.184;2023-03-13T22:54:50;1.80;;;1.23;;
8656;SDS011;4366;50.764;7.184;2023-03-13T22:59:52;2.63;;;1.10;;
8656;SDS011;4366;50.764;7.184;2023-03-13T23:04:54;2.13;;;1.00;;
8656;SDS011;4366;50.764;7.184;2023-03-13T23:09:58;1.13;;;0.90;;
8656;SDS011;4366;50.764;7.184;2023-03-13T23:14:59;1.73;;;1.20;;
8656;SDS011;4366;50.764;7.184;2023-03-13T23:20:03;2.00;;;1.20;;
8656;SDS011;4366;50.764;7.184;2023-03-13T23:25:13;2.20;;;1.20;;
8656;SDS011;4366;50.764;7.184;2023-03-13T23:30:15;1.13;;;1.03;;
8656;SDS011;4366;50.764;7.184;2023-03-13T23:35:17;2.53;;;1.17;;
8656;SDS011;4366;50.764;7.184;2023-03-13T23:40:20;1.20;;;1.10;;
8656;SDS011;4366;50.764;7.184;2023-03-13T23:45:23;1.70;;;1.13;;
8656;SDS011;4366;50.764;7.184;2023-03-13T23:50:25;2.03;;;0.90;;
8656;SDS011;4366;50.764;7.184;2023-03-13T23:55:26;1.63;;;1.20;;
